Time;durP1;ratioP1;P1;durP2;ratioP2;P2;SDS_P1;SDS_P2;PMS_P1;PMS_P2;Temp;Humidity;BMP_temperature;BMP_pressure;BME280_temperature;BME280_humidity;BME280_pressure;Samples;Min_cycle;Max_cycle;Signal;HPM_P1;HPM_P2
2021/01/07 00:01:12;;;;;;;28.47;15.93;;;1.90;99.90;;;;;;5055140;28;20621;-77
2021/01/07 00:03:40;;;;;;;31.90;17.13;;;2.00;99.90;;;;;;5054141;28;20271;-77
2021/01/07 00:06:13;;;;;;;26.38;15.25;;;2.00;99.90;;;;;;5054761;28;20566;-75
2021/01/07 00:08:39;;;;;;;26.30;15.55;;;2.00;99.90;;;;;;5054766;28;20534;-75
2021/01/07 00:11:06;;;;;;;28.02;16.00;;;2.00;99.90;;;;;;5054645;28;20187;-75
2021/01/07 00:13:32;;;;;;;33.22;16.13;;;1.80;99.90;;;;;;5054220;28;20257;-76
2021/01/07 00:15:58;;;;;;;30.30;16.45;;;1.80;99.90;;;;;;5054464;28;20278;-76
2021/01/07 00:18:24;;;;;;;25.37;15.93;;;1.70;99.90;;;;;;5054729;28;20288;-78
2021/01/07 00:20:50;;;;;;;22.80;14.70;;;1.70;99.90;;;;;;5054550;28;20639;-74
2021/01/07 00:23:15;;;;;;;29.40;16.70;;;1.70;99.90;;;;;;5054045;28;20189;-76
2021/01/07 00:25:48;;;;;;;25.57;15.43;;;1.90;99.90;;;;;;5054129;28;20584;-76
2021/01/07 00:28:15;;;;;;;29.55;16.10;;;1.90;99.90;;;;;;5054390;28;20179;-76
2021/01/07 00:30:41;;;;;;;22.48;14.55;;;1.90;99.90;;;;;;5054340;28;20165;-77
2021/01/07 00:33:07;;;;;;;22.50;14.75;;;1.90;99.90;;;;;;5053814;28;20182;-75
2021/01/07 00:35:32;;;;;;;25.50;14.57;;;1.90;99.90;;;;;;5054341;28;20265;-78
2021/01/07 00:37:58;;;;;;;27.10;16.33;;;1.80;99.90;;;;;;5053985;28;20601;-76
2021/01/07 00:40:24;;;;;;;29.73;14.50;;;1.90;99.90;;;;;;5053936;28;20197;-76
2021/01/07 00:42:49;;;;;;;27.37;15.30;;;1.90;99.90;;;;;;5053844;28;20749;-75
2021/01/07 00:45:16;;;;;;;30.37;16.50;;;1.70;99.90;;;;;;5053917;28;20265;-75
2021/01/07 00:47:42;;;;;;;26.40;14.95;;;1.80;99.90;;;;;;5053738;28;20180;-75
2021/01/07 00:50:08;;;;;;;26.43;15.33;;;1.80;99.90;;;;;;5053869;28;20175;-76
2021/01/07 00:52:33;;;;;;;24.55;14.20;;;1.70;99.90;;;;;;5053862;28;20200;-77
2021/01/07 00:54:59;;;;;;;23.40;15.00;;;1.70;99.90;;;;;;5053366;28;20194;-75
2021/01/07 00:57:27;;;;;;;25.43;15.23;;;1.70;99.90;;;;;;5053670;28;20198;-76
2021/01/07 00:59:53;;;;;;;26.88;15.27;;;1.70;99.90;;;;;;5053593;28;20172;-76
2021/01/07 01:02:19;;;;;;;24.80;14.50;;;1.70;99.90;;;;;;5053718;28;20256;-76
2021/01/07 01:04:44;;;;;;;26.15;14.88;;;1.80;99.90;;;;;;5053465;28;20199;-78
2021/01/07 01:07:10;;;;;;;26.27;14.60;;;1.90;99.90;;;;;;5053741;28;20603;-76
2021/01/07 01:09:35;;;;;;;28.10;16.90;;;1.70;99.90;;;;;;5053585;28;20183;-78
2021/01/07 01:12:01;;;;;;;25.70;15.33;;;1.80;99.90;;;;;;5053375;28;20246;-77
2021/01/07 01:14:26;;;;;;;27.83;16.20;;;1.80;99.90;;;;;;5053149;28;20246;-74
2021/01/07 01:16:53;;;;;;;26.03;16.03;;;1.90;99.90;;;;;;5053490;28;20182;-75
2021/01/07 01:19:19;;;;;;;26.45;16.17;;;2.00;99.90;;;;;;5053312;28;20204;-76
2021/01/07 01:21:45;;;;;;;32.30;17.10;;;2.20;99.90;;;;;;5053381;28;20174;-76
2021/01/07 01:24:11;;;;;;;29.45;16.40;;;2.20;99.90;;;;;;5052780;28;20199;-75
2021/01/07 01:26:37;;;;;;;29.30;17.33;;;2.30;99.90;;;;;;5053334;28;20181;-75
2021/01/07 01:29:03;;;;;;;27.77;16.55;;;2.20;99.90;;;;;;5053514;28;20502;-76
2021/01/07 01:31:29;;;;;;;28.53;15.90;;;2.20;99.90;;;;;;5053552;28;20651;-76
2021/01/07 01:33:54;;;;;;;26.27;15.90;;;1.90;99.90;;;;;;5052930;28;20432;-78
2021/01/07 01:36:27;;;;;;;24.20;16.13;;;1.90;99.90;;;;;;5053326;28;20217;-77
2021/01/07 01:38:53;;;;;;;32.65;17.00;;;2.00;99.90;;;;;;5053371;28;20568;-75
2021/01/07 01:41:19;;;;;;;26.02;16.55;;;1.90;99.90;;;;;;5053278;28;20534;-76
2021/01/07 01:43:44;;;;;;;31.00;16.53;;;2.00;99.90;;;;;;5052727;28;20248;-75
2021/01/07 01:46:10;;;;;;;31.03;17.60;;;2.00;99.90;;;;;;5053211;28;20232;-78
2021/01/07 01:48:36;;;;;;;34.60;17.00;;;2.10;99.90;;;;;;5053132;28;20186;-76
2021/01/07 01:51:02;;;;;;;31.73;17.42;;;1.90;99.90;;;;;;5052974;28;20226;-75
2021/01/07 01:53:27;;;;;;;28.07;17.00;;;1.90;99.90;;;;;;5052880;28;20223;-75
2021/01/07 01:55:54;;;;;;;30.30;16.60;;;1.70;99.90;;;;;;5053247;28;20175;-76
2021/01/07 01:58:21;;;;;;;26.67;15.10;;;1.70;99.90;;;;;;5055804;28;20205;-75
2021/01/07 02:00:46;;;;;;;33.08;17.35;;;1.70;99.90;;;;;;5057148;28;20227;-75
2021/01/07 02:03:12;;;;;;;35.93;17.10;;;1.70;99.90;;;;;;5056785;28;20223;-76
2021/01/07 02:05:39;;;;;;;30.60;16.03;;;1.50;99.90;;;;;;5057135;28;20242;-76
2021/01/07 02:08:07;;;;;;;26.02;17.95;;;1.60;99.90;;;;;;5057047;28;20269;-76
2021/01/07 02:10:33;;;;;;;36.70;17.95;;;1.70;99.90;;;;;;5056922;28;20204;-75
2021/01/07 02:13:01;;;;;;;29.45;17.95;;;1.80;99.90;;;;;;5056426;28;20185;-73
2021/01/07 02:15:27;;;;;;;32.83;17.80;;;1.80;99.90;;;;;;5056771;28;20178;-75
2021/01/07 02:17:55;;;;;;;37.27;19.70;;;1.80;99.90;;;;;;5056700;28;20243;-76
2021/01/07 02:20:25;;;;;;;29.38;18.42;;;1.80;99.90;;;;;;5056624;28;20167;-75
2021/01/07 02:22:55;;;;;;;31.17;19.05;;;1.70;99.90;;;;;;5056395;28;20171;-77
2021/01/07 02:25:22;;;;;;;31.73;18.42;;;1.90;99.90;;;;;;5056850;28;20536;-75
2021/01/07 02:27:48;;;;;;;32.92;17.58;;;1.90;99.90;;;;;;5056595;28;20210;-77
2021/01/07 02:30:15;;;;;;;34.65;17.15;;;2.00;99.90;;;;;;5056447;28;20192;-77
2021/01/07 02:32:40;;;;;;;31.60;18.25;;;2.00;99.90;;;;;;5056393;28;20216;-76
2021/01/07 02:35:08;;;;;;;33.73;17.57;;;2.10;99.90;;;;;;5056217;28;20618;-76
2021/01/07 02:37:34;;;;;;;30.25;18.80;;;1.90;99.90;;;;;;5056395;28;20199;-77
2021/01/07 02:40:01;;;;;;;33.45;17.30;;;2.00;99.90;;;;;;5056373;28;20687;-75
2021/01/07 02:42:27;;;;;;;35.67;18.50;;;2.20;99.90;;;;;;5056429;28;20689;-75
2021/01/07 02:44:53;;;;;;;30.13;17.67;;;2.10;99.90;;;;;;5056224;28;20195;-75
2021/01/07 02:47:19;;;;;;;34.97;19.02;;;2.00;99.90;;;;;;5056225;28;20280;-75
2021/01/07 02:49:44;;;;;;;34.67;19.53;;;1.90;99.90;;;;;;5056407;28;20165;-76
2021/01/07 02:52:10;;;;;;;33.73;19.33;;;2.00;99.90;;;;;;5055108;28;20269;-74
2021/01/07 02:54:36;;;;;;;33.83;19.63;;;2.00;99.90;;;;;;5055797;28;21030;-74
2021/01/07 02:57:02;;;;;;;35.53;19.63;;;2.00;99.90;;;;;;5056177;28;20179;-74
2021/01/07 02:59:28;;;;;;;33.63;18.00;;;2.00;99.90;;;;;;5056075;28;20193;-77
2021/01/07 03:01:53;;;;;;;35.47;17.83;;;2.10;99.90;;;;;;5056027;28;20257;-75
2021/01/07 03:04:20;;;;;;;33.73;19.47;;;2.00;99.90;;;;;;5055542;28;20226;-75
2021/01/07 03:06:45;;;;;;;43.83;18.80;;;2.00;99.90;;;;;;5055795;28;20167;-76
2021/01/07 03:09:11;;;;;;;37.30;19.20;;;2.00;99.90;;;;;;5055724;28;20182;-76
2021/01/07 03:11:37;;;;;;;26.77;15.37;;;2.00;99.90;;;;;;5055831;28;20264;-75
2021/01/07 03:14:03;;;;;;;34.40;18.17;;;2.00;99.90;;;;;;5055382;28;20733;-75
2021/01/07 03:16:28;;;;;;;34.25;16.35;;;1.90;99.90;;;;;;5055683;28;20465;-76
2021/01/07 03:18:54;;;;;;;29.53;14.30;;;2.00;99.90;;;;;;5055668;28;20210;-75
2021/01/07 03:21:20;;;;;;;29.70;16.10;;;1.80;99.90;;;;;;5055630;28;20175;-75
2021/01/07 03:23:45;;;;;;;27.70;14.17;;;1.80;99.90;;;;;;5055203;28;20225;-76
2021/01/07 03:26:11;;;;;;;31.83;16.63;;;1.70;99.90;;;;;;5055534;28;20229;-76
2021/01/07 03:28:37;;;;;;;30.53;14.63;;;1.80;99.90;;;;;;5054191;28;20439;-75
2021/01/07 03:31:03;;;;;;;31.10;16.07;;;1.80;99.90;;;;;;5055267;28;20174;-76
2021/01/07 03:33:28;;;;;;;28.37;15.27;;;2.00;99.90;;;;;;5055201;28;20648;-75
2021/01/07 03:35:54;;;;;;;36.70;16.50;;;2.00;99.90;;;;;;5055558;28;20900;-77
2021/01/07 03:38:19;;;;;;;29.07;14.80;;;2.00;99.90;;;;;;5055244;28;20686;-75
2021/01/07 03:40:45;;;;;;;32.83;16.10;;;1.80;99.90;;;;;;5055189;28;20555;-76
2021/01/07 03:43:11;;;;;;;30.70;16.90;;;1.80;99.90;;;;;;5054792;28;20172;-76
2021/01/07 03:45:36;;;;;;;34.73;18.07;;;1.80;99.90;;;;;;5055285;28;20174;-76
2021/01/07 03:48:02;;;;;;;29.57;15.67;;;1.80;99.90;;;;;;5055442;28;20521;-75
2021/01/07 03:50:27;;;;;;;37.27;17.30;;;1.70;99.90;;;;;;5055233;28;20179;-75
2021/01/07 03:52:53;;;;;;;38.60;17.83;;;1.70;99.90;;;;;;5054687;28;20180;-76
2021/01/07 03:55:19;;;;;;;30.47;15.97;;;1.80;99.90;;;;;;5054892;28;20195;-75
2021/01/07 03:57:44;;;;;;;34.07;17.37;;;1.80;99.90;;;;;;5054940;28;20194;-76
2021/01/07 04:00:10;;;;;;;31.93;15.70;;;1.80;99.90;;;;;;5054950;28;20201;-75
2021/01/07 04:02:36;;;;;;;33.22;17.48;;;1.70;99.90;;;;;;5055012;28;20178;-75
2021/01/07 04:05:02;;;;;;;37.57;17.70;;;1.90;99.90;;;;;;5054698;28;20192;-76
2021/01/07 04:07:28;;;;;;;30.00;15.13;;;1.80;99.90;;;;;;5054823;28;20184;-74
2021/01/07 04:09:54;;;;;;;31.67;17.80;;;1.80;99.90;;;;;;5054829;28;20181;-74
2021/01/07 04:12:19;;;;;;;27.80;17.03;;;2.00;99.90;;;;;;5054724;28;20301;-77
2021/01/07 04:14:45;;;;;;;29.80;16.83;;;2.00;99.90;;;;;;5054060;28;20199;-75
2021/01/07 04:17:10;;;;;;;34.00;18.83;;;1.90;99.90;;;;;;5054312;28;20218;-77
2021/01/07 04:19:36;;;;;;;28.03;17.00;;;1.90;99.90;;;;;;5054067;28;20697;-74
2021/01/07 04:22:02;;;;;;;30.10;17.70;;;2.00;99.90;;;;;;5054429;28;20175;-75
2021/01/07 04:24:27;;;;;;;34.40;18.48;;;2.20;99.90;;;;;;5054050;28;20196;-77
2021/01/07 04:26:53;;;;;;;30.67;17.80;;;2.20;99.90;;;;;;5054385;28;20198;-75
2021/01/07 04:29:19;;;;;;;37.60;18.23;;;2.20;99.90;;;;;;5054246;28;20245;-78
2021/01/07 04:31:44;;;;;;;34.60;20.13;;;2.10;99.90;;;;;;5056330;28;20194;-76
2021/01/07 04:34:10;;;;;;;32.50;18.63;;;2.20;99.90;;;;;;5053871;28;20204;-76
2021/01/07 04:36:36;;;;;;;34.93;20.13;;;2.20;99.90;;;;;;5054293;28;20208;-75
2021/01/07 04:39:01;;;;;;;34.37;19.00;;;2.20;99.90;;;;;;5054201;28;20744;-76
2021/01/07 04:41:27;;;;;;;32.13;18.47;;;2.10;99.90;;;;;;5054195;28;20199;-75
2021/01/07 04:43:57;;;;;;;40.30;20.00;;;2.10;99.90;;;;;;5053656;28;20466;-76
2021/01/07 04:46:24;;;;;;;35.47;18.20;;;2.20;99.90;;;;;;5054003;28;20182;-77
2021/01/07 04:48:50;;;;;;;47.38;21.75;;;2.20;99.90;;;;;;5052764;28;20745;-77
2021/01/07 04:51:16;;;;;;;35.72;19.48;;;2.40;99.90;;;;;;5054198;28;20641;-75
2021/01/07 04:53:42;;;;;;;39.50;22.33;;;2.10;99.90;;;;;;5053245;28;20193;-77
2021/01/07 04:56:08;;;;;;;37.97;20.58;;;2.10;99.90;;;;;;5054091;28;20179;-76
2021/01/07 04:58:33;;;;;;;41.87;20.80;;;2.10;99.90;;;;;;5052395;28;20661;-74
2021/01/07 05:00:59;;;;;;;37.47;19.80;;;2.20;99.90;;;;;;5053885;28;20177;-76
2021/01/07 05:03:30;;;;;;;36.60;19.73;;;2.20;99.90;;;;;;5053490;28;20200;-76
2021/01/07 05:05:56;;;;;;;39.22;21.05;;;2.10;99.90;;;;;;5053800;28;20172;-77
2021/01/07 05:08:21;;;;;;;39.87;22.33;;;2.20;99.90;;;;;;5053681;28;20658;-76
2021/01/07 05:10:47;;;;;;;40.77;22.80;;;2.30;99.90;;;;;;5052489;28;20576;-76
2021/01/07 05:13:20;;;;;;;39.30;22.10;;;2.20;99.90;;;;;;5053334;28;20218;-75
2021/01/07 05:15:47;;;;;;;41.80;19.77;;;2.20;99.90;;;;;;5053597;28;20706;-76
2021/01/07 05:18:13;;;;;;;39.40;23.33;;;2.10;99.90;;;;;;5053304;28;20256;-76
2021/01/07 05:20:39;;;;;;;41.45;22.95;;;2.10;99.90;;;;;;5053483;28;20167;-75
2021/01/07 05:23:07;;;;;;;42.90;23.10;;;2.20;99.90;;;;;;5053060;28;20187;-76
2021/01/07 05:25:33;;;;;;;38.28;23.00;;;2.20;99.90;;;;;;5053349;28;20229;-77
2021/01/07 05:28:03;;;;;;;41.00;21.90;;;2.20;99.90;;;;;;5053119;28;20614;-75
2021/01/07 05:30:30;;;;;;;41.45;23.52;;;2.10;99.90;;;;;;5053464;28;20543;-75
2021/01/07 05:33:04;;;;;;;38.60;22.38;;;2.10;99.90;;;;;;5052046;28;20526;-75
2021/01/07 05:35:30;;;;;;;41.85;23.17;;;2.10;99.90;;;;;;5053167;28;20182;-76
2021/01/07 05:38:00;;;;;;;47.78;22.70;;;2.20;99.90;;;;;;5053018;28;20228;-75
2021/01/07 05:40:26;;;;;;;40.35;23.77;;;2.20;99.90;;;;;;5053411;28;20266;-75
2021/01/07 05:42:56;;;;;;;46.80;23.63;;;2.20;99.90;;;;;;5052904;28;20255;-75
2021/01/07 05:45:21;;;;;;;44.95;22.67;;;2.10;99.90;;;;;;5053285;28;20177;-75
2021/01/07 05:47:52;;;;;;;52.97;24.53;;;2.20;99.90;;;;;;5053111;28;20183;-76
2021/01/07 05:50:20;;;;;;;40.38;23.50;;;2.40;99.90;;;;;;5052998;28;20185;-76
2021/01/07 05:52:49;;;;;;;38.78;22.17;;;2.30;99.90;;;;;;5052795;28;20181;-77
2021/01/07 05:55:19;;;;;;;60.95;28.90;;;2.20;99.90;;;;;;5053085;28;20280;-75
2021/01/07 05:57:45;;;;;;;42.00;24.80;;;2.10;99.90;;;;;;5053021;28;20617;-75
2021/01/07 06:00:12;;;;;;;44.88;24.30;;;2.20;99.90;;;;;;5052917;28;20205;-76
2021/01/07 06:02:40;;;;;;;42.28;25.10;;;2.30;99.90;;;;;;5053253;28;20174;-76
2021/01/07 06:05:14;;;;;;;43.03;24.80;;;2.20;99.90;;;;;;5052905;28;20187;-75
2021/01/07 06:07:40;;;;;;;43.15;23.48;;;2.20;99.90;;;;;;5051835;28;20527;-76
2021/01/07 06:10:08;;;;;;;43.00;21.95;;;2.10;99.90;;;;;;5053026;28;20175;-76
2021/01/07 06:12:34;;;;;;;42.78;23.73;;;2.20;99.90;;;;;;5053185;28;20230;-76
2021/01/07 06:15:02;;;;;;;44.60;21.80;;;2.20;99.90;;;;;;5052587;28;20595;-75
2021/01/07 06:17:30;;;;;;;50.50;25.50;;;2.20;99.90;;;;;;5052900;28;20544;-77
2021/01/07 06:19:55;;;;;;;48.83;23.55;;;2.20;99.90;;;;;;5051621;28;20239;-75
2021/01/07 06:22:22;;;;;;;47.10;25.13;;;2.30;99.90;;;;;;5052619;28;20176;-76
2021/01/07 06:24:55;;;;;;;52.80;25.23;;;2.20;99.90;;;;;;5052563;28;20532;-76
2021/01/07 06:27:30;;;;;;;45.00;24.35;;;2.30;99.90;;;;;;5052685;28;20635;-75
2021/01/07 06:30:11;;;;;;;53.53;26.50;;;2.30;99.90;;;;;;5052738;28;20223;-75
2021/01/07 06:32:41;;;;;;;44.83;23.10;;;2.40;99.90;;;;;;5052552;28;20175;-76
2021/01/07 06:35:10;;;;;;;47.70;27.27;;;2.20;99.90;;;;;;5052337;28;20245;-74
2021/01/07 06:37:38;;;;;;;54.72;27.50;;;2.20;99.90;;;;;;5052741;28;20195;-74
2021/01/07 06:40:11;;;;;;;48.47;24.40;;;2.20;99.90;;;;;;5052561;28;20277;-74
2021/01/07 06:42:38;;;;;;;47.35;25.63;;;2.20;99.90;;;;;;5042001;28;20675;-76
2021/01/07 06:45:06;;;;;;;48.10;24.85;;;2.20;99.90;;;;;;5035910;28;20188;-76
2021/01/07 06:47:32;;;;;;;49.10;25.85;;;2.30;99.90;;;;;;5036302;28;20183;-77
2021/01/07 06:49:59;;;;;;;41.67;20.63;;;2.30;99.90;;;;;;5036293;28;20228;-77
2021/01/07 06:52:26;;;;;;;52.03;28.25;;;2.20;99.90;;;;;;5036309;28;20241;-75
2021/01/07 06:54:56;;;;;;;55.38;26.58;;;2.20;99.90;;;;;;5035667;28;20274;-75
2021/01/07 06:57:21;;;;;;;56.28;29.75;;;2.30;99.90;;;;;;5036249;28;20174;-76
2021/01/07 06:59:57;;;;;;;52.80;29.07;;;2.30;99.90;;;;;;5036321;28;20518;-76
2021/01/07 07:02:23;;;;;;;49.85;25.83;;;2.20;99.90;;;;;;5036216;28;20908;-74
2021/01/07 07:05:01;;;;;;;55.95;31.50;;;2.20;99.90;;;;;;5035625;28;20570;-76
2021/01/07 07:07:32;;;;;;;54.17;27.30;;;2.20;99.90;;;;;;5035956;28;20585;-76
2021/01/07 07:10:23;;;;;;;56.85;26.65;;;2.10;99.90;;;;;;5036058;28;20169;-76
2021/01/07 07:12:52;;;;;;;52.88;27.25;;;2.20;99.90;;;;;;5035451;28;20534;-76
2021/01/07 07:15:22;;;;;;;51.80;27.38;;;2.30;99.90;;;;;;5035699;28;20198;-76
2021/01/07 07:17:49;;;;;;;46.95;25.73;;;2.30;99.90;;;;;;5035793;28;20198;-76
2021/01/07 07:20:18;;;;;;;50.17;26.23;;;2.20;99.90;;;;;;5035681;28;20539;-74
2021/01/07 07:22:45;;;;;;;48.38;24.88;;;2.20;99.90;;;;;;5035587;28;20513;-75
2021/01/07 07:25:12;;;;;;;52.45;29.00;;;2.20;99.90;;;;;;5035302;28;20274;-74
2021/01/07 07:27:50;;;;;;;61.40;27.92;;;2.20;99.90;;;;;;5035409;28;20184;-75
2021/01/07 07:30:27;;;;;;;54.67;28.08;;;2.20;99.90;;;;;;5035535;28;20721;-74
2021/01/07 07:32:53;;;;;;;59.38;30.20;;;2.20;99.90;;;;;;5035047;28;20168;-74
2021/01/07 07:35:26;;;;;;;54.00;30.00;;;2.00;99.90;;;;;;5035392;28;20195;-74
2021/01/07 07:37:53;;;;;;;55.53;27.30;;;2.20;99.90;;;;;;5035285;28;20563;-73
2021/01/07 07:40:35;;;;;;;51.83;26.33;;;2.20;99.90;;;;;;5035287;28;20245;-74
2021/01/07 07:43:03;;;;;;;55.80;28.70;;;2.30;99.90;;;;;;5034970;28;20179;-74
2021/01/07 07:45:32;;;;;;;58.83;28.05;;;2.30;99.90;;;;;;5035263;28;20197;-75
2021/01/07 07:47:58;;;;;;;52.63;27.42;;;2.10;99.90;;;;;;5035341;28;20209;-73
2021/01/07 07:50:29;;;;;;;59.17;31.50;;;2.20;99.90;;;;;;5035169;28;20604;-73
2021/01/07 07:53:07;;;;;;;53.72;27.38;;;2.20;99.90;;;;;;5034825;28;20631;-74
2021/01/07 07:55:37;;;;;;;59.15;26.98;;;2.20;99.90;;;;;;5034117;28;20177;-73
2021/01/07 07:58:18;;;;;;;55.50;27.45;;;2.20;99.90;;;;;;5035136;28;20227;-75
2021/01/07 08:00:54;;;;;;;58.25;28.13;;;2.40;99.90;;;;;;5035235;28;20222;-75
2021/01/07 08:03:29;;;;;;;55.70;26.80;;;2.30;99.90;;;;;;5034525;28;20187;-75
2021/01/07 08:05:59;;;;;;;55.97;25.45;;;2.30;99.90;;;;;;5034958;28;20190;-74
2021/01/07 08:08:27;;;;;;;47.50;24.83;;;2.20;99.90;;;;;;5034982;28;20225;-74
2021/01/07 08:10:54;;;;;;;53.42;26.23;;;2.00;99.90;;;;;;5035006;28;20257;-76
2021/01/07 08:13:20;;;;;;;49.13;27.02;;;2.00;99.90;;;;;;5034332;28;20286;-74
2021/01/07 08:15:50;;;;;;;53.60;27.08;;;2.00;99.90;;;;;;5034825;28;20236;-75
2021/01/07 08:18:24;;;;;;;49.50;24.73;;;2.10;99.90;;;;;;5034722;28;20198;-74
2021/01/07 08:20:51;;;;;;;52.63;23.95;;;2.00;99.90;;;;;;5042485;28;20189;-75
2021/01/07 08:23:18;;;;;;;48.60;24.73;;;1.90;99.90;;;;;;5053933;28;20201;-74
2021/01/07 08:25:49;;;;;;;42.38;19.80;;;2.00;99.90;;;;;;5054545;28;20212;-75
2021/01/07 08:28:27;;;;;;;50.83;26.67;;;2.00;99.90;;;;;;5054257;28;20193;-74
2021/01/07 08:30:57;;;;;;;51.75;26.00;;;2.00;99.90;;;;;;5054277;28;20521;-75
2021/01/07 08:33:23;;;;;;;48.83;22.38;;;2.00;99.90;;;;;;5053704;28;20222;-74
2021/01/07 08:35:50;;;;;;;47.00;24.80;;;2.20;99.90;;;;;;5053713;28;20170;-75
2021/01/07 08:38:26;;;;;;;50.50;26.33;;;2.20;99.90;;;;;;5053812;28;20210;-75
2021/01/07 08:40:54;;;;;;;48.15;23.90;;;2.10;99.90;;;;;;5054095;28;20189;-74
2021/01/07 08:43:19;;;;;;;48.53;23.88;;;1.90;99.90;;;;;;5053603;28;20197;-75
2021/01/07 08:45:45;;;;;;;41.10;21.03;;;1.90;99.90;;;;;;5054120;28;20385;-75
2021/01/07 08:48:11;;;;;;;50.23;24.03;;;1.90;99.90;;;;;;5054310;28;20177;-74
2021/01/07 08:50:38;;;;;;;53.07;26.50;;;1.90;99.90;;;;;;5054040;28;20417;-74
2021/01/07 08:53:08;;;;;;;45.90;23.10;;;1.80;99.90;;;;;;5053620;28;20422;-75
2021/01/07 08:55:51;;;;;;;44.67;22.55;;;1.90;99.90;;;;;;5053861;28;20182;-74
2021/01/07 08:58:25;;;;;;;49.13;22.60;;;1.80;99.90;;;;;;5053817;28;20281;-74
2021/01/07 09:00:53;;;;;;;46.38;23.33;;;1.90;99.90;;;;;;5054067;28;20174;-75
2021/01/07 09:03:19;;;;;;;46.70;25.80;;;2.00;99.90;;;;;;5053325;28;20278;-75
2021/01/07 09:05:45;;;;;;;43.13;21.95;;;2.00;99.90;;;;;;5053717;28;20177;-74
2021/01/07 09:08:12;;;;;;;45.90;22.07;;;1.90;99.90;;;;;;5053774;28;20177;-74
2021/01/07 09:10:38;;;;;;;36.33;19.45;;;2.00;99.90;;;;;;5053701;28;20680;-74
2021/01/07 09:13:22;;;;;;;38.90;21.02;;;2.00;99.90;;;;;;5053158;28;20194;-75
2021/01/07 09:15:49;;;;;;;35.20;20.08;;;2.20;99.90;;;;;;5053550;28;20276;-74
2021/01/07 09:18:19;;;;;;;47.25;22.75;;;2.20;99.90;;;;;;5053332;28;20201;-74
2021/01/07 09:20:45;;;;;;;38.10;19.17;;;2.20;99.90;;;;;;5053820;28;20650;-74
2021/01/07 09:23:15;;;;;;;43.80;22.47;;;2.10;99.90;;;;;;5052991;28;20186;-74
2021/01/07 09:25:41;;;;;;;41.35;20.48;;;2.20;99.90;;;;;;5053330;28;20801;-75
2021/01/07 09:28:07;;;;;;;44.77;22.40;;;2.00;99.90;;;;;;5053288;28;20218;-74
2021/01/07 09:30:33;;;;;;;40.25;21.40;;;1.90;99.90;;;;;;5053227;28;20439;-75
2021/01/07 09:32:59;;;;;;;37.13;19.00;;;1.90;99.90;;;;;;5052855;28;20583;-75
2021/01/07 09:35:26;;;;;;;35.80;19.20;;;2.00;99.90;;;;;;5053203;28;20922;-75
2021/01/07 09:37:52;;;;;;;38.15;19.52;;;2.00;99.90;;;;;;5052954;28;20498;-75
2021/01/07 09:40:19;;;;;;;32.05;17.92;;;1.90;99.90;;;;;;5052955;28;20724;-74
2021/01/07 09:42:45;;;;;;;39.08;21.58;;;1.90;99.90;;;;;;5053162;28;20211;-75
2021/01/07 09:45:12;;;;;;;43.95;24.10;;;2.00;99.90;;;;;;5052689;28;20190;-74
2021/01/07 09:47:38;;;;;;;36.88;19.73;;;2.00;99.90;;;;;;5053040;28;20170;-74
2021/01/07 09:50:07;;;;;;;38.08;20.20;;;2.00;99.90;;;;;;5053278;28;20166;-74
2021/01/07 09:52:33;;;;;;;38.92;21.60;;;2.10;99.90;;;;;;5051761;28;20272;-75
2021/01/07 09:54:59;;;;;;;41.73;18.93;;;2.10;99.90;;;;;;5052850;28;20234;-75
2021/01/07 09:57:25;;;;;;;32.03;16.92;;;2.10;99.90;;;;;;5052982;28;20405;-74
2021/01/07 09:59:51;;;;;;;31.67;18.23;;;2.00;99.90;;;;;;5052920;28;20186;-75
2021/01/07 10:02:16;;;;;;;35.30;19.93;;;2.10;99.90;;;;;;5052983;28;20261;-74
2021/01/07 10:04:44;;;;;;;33.73;16.83;;;2.10;99.90;;;;;;5052598;28;20217;-75
2021/01/07 10:07:13;;;;;;;34.13;18.17;;;2.10;99.90;;;;;;5052822;28;20642;-75
2021/01/07 10:09:39;;;;;;;31.90;17.67;;;2.20;99.90;;;;;;5053025;28;20175;-74
2021/01/07 10:12:06;;;;;;;35.38;17.70;;;2.30;99.90;;;;;;5052804;28;20178;-75
2021/01/07 10:14:32;;;;;;;37.85;19.70;;;2.30;99.90;;;;;;5052731;28;20202;-74
2021/01/07 10:17:01;;;;;;;32.38;18.10;;;2.40;99.90;;;;;;5053049;28;20179;-74
2021/01/07 10:19:29;;;;;;;30.85;17.80;;;2.50;99.90;;;;;;5055824;28;20247;-75
2021/01/07 10:22:07;;;;;;;32.97;17.50;;;2.40;99.90;;;;;;5056956;28;20285;-75
2021/01/07 10:24:38;;;;;;;32.47;17.75;;;2.40;99.90;;;;;;5056457;28;20186;-75
2021/01/07 10:27:06;;;;;;;29.20;17.02;;;2.30;99.90;;;;;;5056658;28;20167;-74
2021/01/07 10:29:33;;;;;;;28.98;15.55;;;2.30;99.90;;;;;;5056727;28;20187;-75
2021/01/07 10:32:04;;;;;;;24.30;15.52;;;2.30;99.90;;;;;;5056455;28;20169;-75
2021/01/07 10:34:33;;;;;;;28.98;16.63;;;2.30;99.90;;;;;;5056353;28;20205;-74
2021/01/07 10:37:01;;;;;;;20.10;9.70;;;2.30;99.90;;;;;;5056478;28;20235;-74
2021/01/07 10:39:30;;;;;;;25.98;14.93;;;2.30;99.90;;;;;;5056554;28;20257;-74
2021/01/07 10:41:57;;;;;;;21.02;12.93;;;2.30;99.90;;;;;;5056284;28;20528;-75
2021/01/07 10:44:23;;;;;;;20.88;13.70;;;2.30;99.90;;;;;;5054641;28;20190;-76
2021/01/07 10:46:54;;;;;;;24.27;14.10;;;2.40;99.90;;;;;;5056549;28;20178;-76
2021/01/07 10:49:20;;;;;;;26.80;14.70;;;2.50;99.90;;;;;;5056410;28;21245;-76
2021/01/07 10:52:07;;;;;;;21.50;14.90;;;2.40;99.90;;;;;;5056610;28;20309;-75
2021/01/07 10:54:57;;;;;;;24.02;15.38;;;2.40;99.90;;;;;;5055670;28;20199;-75
2021/01/07 10:57:59;;;;;;;23.15;15.80;;;2.30;99.90;;;;;;5056142;28;20178;-76
2021/01/07 11:00:33;;;;;;;22.70;14.13;;;2.40;99.90;;;;;;5054765;28;20683;-76
2021/01/07 11:03:26;;;;;;;22.60;15.13;;;2.40;99.90;;;;;;5055582;28;20186;-75
2021/01/07 11:05:57;;;;;;;28.48;15.30;;;2.50;99.90;;;;;;5056150;28;20186;-76
2021/01/07 11:08:46;;;;;;;25.38;15.23;;;2.40;99.90;;;;;;5056148;28;20632;-76
2021/01/07 11:11:23;;;;;;;24.52;15.05;;;2.30;99.90;;;;;;5056179;28;20197;-75
2021/01/07 11:14:02;;;;;;;25.50;15.13;;;2.40;99.90;;;;;;5055668;28;20194;-76
2021/01/07 11:16:46;;;;;;;20.92;14.10;;;2.30;99.90;;;;;;5055763;28;20170;-75
2021/01/07 11:19:25;;;;;;;23.42;15.02;;;2.20;99.90;;;;;;5055725;28;20216;-74
2021/01/07 11:22:02;;;;;;;22.02;15.48;;;2.30;99.90;;;;;;5055757;28;20224;-76
2021/01/07 11:24:29;;;;;;;19.55;13.25;;;2.30;99.90;;;;;;5053808;28;20195;-76
2021/01/07 11:26:55;;;;;;;18.23;11.88;;;2.40;99.90;;;;;;5055379;28;20177;-75
2021/01/07 11:29:22;;;;;;;18.85;12.57;;;2.30;99.90;;;;;;5054700;28;20669;-75
2021/01/07 11:31:47;;;;;;;20.40;14.10;;;2.30;99.90;;;;;;5055170;28;20181;-75
2021/01/07 11:34:15;;;;;;;24.27;12.33;;;2.20;99.90;;;;;;5055066;28;20207;-76
2021/01/07 11:37:04;;;;;;;21.95;12.77;;;2.20;99.90;;;;;;5055272;28;20210;-75
2021/01/07 11:39:57;;;;;;;19.52;12.43;;;2.20;99.90;;;;;;5055298;28;20564;-75
2021/01/07 11:42:35;;;;;;;19.90;12.63;;;2.30;99.90;;;;;;5051111;28;20663;-76
2021/01/07 11:45:20;;;;;;;19.42;12.40;;;2.40;99.90;;;;;;5054801;28;20243;-76
2021/01/07 11:47:54;;;;;;;18.65;11.80;;;2.40;99.90;;;;;;5055132;28;20210;-75
2021/01/07 11:50:26;;;;;;;17.92;11.07;;;2.30;99.90;;;;;;5055075;28;20172;-75
2021/01/07 11:52:55;;;;;;;17.05;12.40;;;2.50;99.90;;;;;;5054666;28;20266;-75
2021/01/07 11:55:25;;;;;;;17.70;11.98;;;2.50;99.90;;;;;;5055679;28;20187;-75
2021/01/07 11:57:51;;;;;;;22.25;12.15;;;2.50;99.90;;;;;;5055304;28;20198;-76
2021/01/07 12:00:18;;;;;;;15.57;11.90;;;2.70;99.90;;;;;;5055266;28;20185;-75
2021/01/07 12:02:45;;;;;;;13.75;9.27;;;2.70;99.90;;;;;;5055258;28;20173;-76
2021/01/07 12:05:17;;;;;;;18.85;10.10;;;2.50;99.90;;;;;;5054701;28;20202;-75
2021/01/07 12:07:58;;;;;;;13.88;8.95;;;2.60;99.90;;;;;;5054487;28;20183;-74
2021/01/07 12:10:27;;;;;;;14.10;9.43;;;2.50;99.90;;;;;;5055109;28;20234;-75
2021/01/07 12:13:19;;;;;;;13.77;9.90;;;2.60;99.90;;;;;;5054404;28;20170;-76
2021/01/07 12:15:48;;;;;;;11.45;9.20;;;2.70;99.90;;;;;;5055003;28;20178;-75
2021/01/07 12:18:16;;;;;;;17.27;8.63;;;2.70;99.90;;;;;;5054509;28;20200;-75
2021/01/07 12:20:42;;;;;;;12.23;8.77;;;2.70;99.90;;;;;;5054622;28;20244;-74
2021/01/07 12:23:10;;;;;;;12.70;8.65;;;2.70;99.90;;;;;;5054133;28;20537;-74
2021/01/07 12:25:39;;;;;;;15.40;10.15;;;2.70;99.90;;;;;;5054674;28;20184;-75
2021/01/07 12:28:06;;;;;;;15.40;10.10;;;2.70;99.90;;;;;;5054628;28;20174;-74
2021/01/07 12:30:39;;;;;;;12.65;9.07;;;2.60;99.90;;;;;;5054455;28;20174;-74
2021/01/07 12:33:27;;;;;;;16.65;9.95;;;2.50;99.90;;;;;;5053840;28;20265;-75
2021/01/07 12:36:15;;;;;;;14.07;9.77;;;2.60;99.90;;;;;;5054250;28;20208;-75
2021/01/07 12:39:07;;;;;;;16.10;10.68;;;2.50;99.90;;;;;;5054288;28;20206;-75
2021/01/07 12:41:51;;;;;;;13.02;10.38;;;2.60;99.90;;;;;;5053647;28;20199;-75
2021/01/07 12:44:20;;;;;;;13.93;10.23;;;2.50;99.90;;;;;;5053701;28;20187;-75
2021/01/07 12:46:51;;;;;;;14.18;8.75;;;2.50;99.90;;;;;;5054038;28;20179;-75